Portada
METAR-TAF:

METAR-TAF

Aeropuertos :

Aeropuerto de Pamplona

Pamplona, España

latitud: 42-46N, longitud: 001-38W, altitud: 459 m

Observación

El informe se hizo hace 39 minutos, a las 02:00 UTC
Viento 10 kt del este, variando entre este y sur-sureste
Temperatura 7°C
Humedad 81%
Presión 1021 hPa
Visibilidad 10 km o más
Escasas nubes a una altura de 2400 ft

METAR: LEPP 240200Z AUTO 10010KT 080V150 9999 FEW024 07/04 Q1021

Hora: 03:39 (02:39 UTC)

Pronóstico

El informe se hizo hace 6 horas y 39 minutos, a las 20:00 UTC
Pronóstico válido del 23 a las 21 UTC al 24 a las 21 UTC
Viento 9 kt del este-sureste
Visibilidad 10 km o más
Cielo nuboso a una altura de 3000 ft
Probabilidad 40% :
Temporalmente
del 24 a las 00 UTC al 24 a las 09 UTC
Visibilidad: 3000 m
Cielo nuboso a una altura de 500 ft
neblina

TAF: LEPP 232000Z 2321/2421 11009KT 9999 BKN030 TX12/2414Z TN01/2408Z PROB40 TEMPO 2400/2409 3000 BR BKN005

Observaciones y pronósticos meteorológicos de más de 4000 aeropuertos (mensajes METAR y TAF).

Los puntos amarillos y rojos representan las estaciones disponibles.

Ponga el ratón en el punto deseado para ver el nombre de la estación.

Haga clic para ver las observaciones y los pronósticos meteorológicos.

Para cambiar el mapa : haga clic en los botones verdes con una cruz de color negro para hacer un zoom, en el botón verde con un guión para alejar o en las flechas verdes para mapas adyacentes.


METAR-TAF: